createdAt,value
2022-11-27T00:00:15.074Z,19.87
2022-11-27T00:02:44.602Z,19.70
2022-11-27T00:05:12.344Z,21.83
2022-11-27T00:07:40.520Z,19.53
2022-11-27T00:10:09.102Z,17.43
2022-11-27T00:12:38.749Z,19.80
2022-11-27T00:15:06.558Z,25.00
2022-11-27T00:17:34.775Z,19.50
2022-11-27T00:20:02.389Z,20.93
2022-11-27T00:22:30.221Z,17.63
2022-11-27T00:24:58.096Z,22.03
2022-11-27T00:27:26.164Z,17.77
2022-11-27T00:29:55.158Z,15.57
2022-11-27T00:32:23.254Z,16.10
2022-11-27T00:34:51.006Z,20.83
2022-11-27T00:37:18.915Z,19.90
2022-11-27T00:39:46.947Z,24.23
2022-11-27T00:42:14.638Z,22.33
2022-11-27T00:44:42.406Z,19.10
2022-11-27T00:47:11.928Z,22.07
2022-11-27T00:49:39.580Z,20.00
2022-11-27T00:52:07.701Z,23.63
2022-11-27T00:54:35.558Z,20.57
2022-11-27T00:57:03.347Z,18.40
2022-11-27T00:59:31.611Z,21.63
2022-11-27T01:01:59.807Z,19.90
2022-11-27T01:04:28.897Z,17.67
2022-11-27T01:06:56.711Z,27.63
2022-11-27T01:09:24.895Z,27.57
2022-11-27T01:11:52.490Z,21.30
2022-11-27T01:14:20.194Z,25.70
2022-11-27T01:16:48.083Z,20.27
2022-11-27T01:19:16.264Z,21.80
2022-11-27T01:21:45.399Z,20.50
2022-11-27T01:24:13.737Z,24.70
2022-11-27T01:26:41.574Z,19.20
2022-11-27T01:29:09.787Z,18.10
2022-11-27T01:31:37.806Z,18.27
2022-11-27T01:34:07.006Z,16.43
2022-11-27T01:36:35.912Z,20.37
2022-11-27T01:39:05.529Z,15.93
2022-11-27T01:41:34.056Z,16.60
2022-11-27T01:44:02.821Z,22.97
2022-11-27T01:46:34.243Z,28.60
2022-11-27T01:49:06.546Z,18.57
2022-11-27T01:51:34.433Z,29.97
2022-11-27T01:54:02.018Z,22.33
2022-11-27T01:56:31.137Z,21.67
2022-11-27T01:59:00.176Z,22.73
2022-11-27T02:01:28.462Z,22.80
2022-11-27T02:03:58.690Z,30.40
2022-11-27T02:06:26.752Z,22.23
2022-11-27T02:08:54.591Z,33.50
2022-11-27T02:11:27.449Z,29.03
2022-11-27T02:14:00.018Z,58.30
2022-11-27T02:16:31.937Z,24.13
2022-11-27T02:19:01.001Z,25.13
2022-11-27T02:21:33.237Z,31.40
2022-11-27T02:24:09.973Z,29.50
2022-11-27T02:26:56.545Z,20.33
2022-11-27T02:29:27.118Z,22.67
2022-11-27T02:31:58.964Z,28.73
2022-11-27T02:34:28.714Z,28.03
2022-11-27T02:36:59.751Z,32.93
2022-11-27T02:39:31.522Z,24.23
2022-11-27T02:42:02.127Z,43.23
2022-11-27T02:44:33.733Z,22.93
2022-11-27T02:47:02.365Z,23.93
2022-11-27T02:49:30.099Z,23.53
2022-11-27T02:52:00.015Z,19.90
2022-11-27T02:54:29.088Z,27.70
2022-11-27T02:56:59.628Z,21.13
2022-11-27T02:59:30.309Z,35.87
2022-11-27T03:02:05.464Z,27.93
2022-11-27T03:04:36.894Z,27.03
2022-11-27T03:07:06.393Z,21.63
2022-11-27T03:09:35.585Z,35.77
2022-11-27T03:12:03.975Z,19.70
2022-11-27T03:14:31.787Z,19.17
2022-11-27T03:17:03.403Z,24.40
2022-11-27T03:19:36.576Z,19.30
2022-11-27T03:22:05.146Z,20.67
2022-11-27T03:24:34.216Z,25.73
2022-11-27T03:27:02.388Z,36.33
2022-11-27T03:29:31.432Z,27.83
2022-11-27T03:31:59.154Z,22.60
2022-11-27T03:34:27.064Z,18.33
2022-11-27T03:36:56.354Z,19.03
2022-11-27T03:39:24.535Z,28.33
2022-11-27T03:41:55.821Z,20.60
2022-11-27T03:44:27.730Z,21.50
2022-11-27T03:47:01.789Z,25.37
2022-11-27T03:49:34.188Z,42.03
2022-11-27T03:52:07.658Z,48.40
2022-11-27T03:54:42.429Z,21.93
2022-11-27T03:57:14.346Z,23.47
2022-11-27T03:59:44.272Z,23.17
2022-11-27T04:02:13.712Z,20.33
2022-11-27T04:04:42.727Z,23.47
2022-11-27T04:07:16.851Z,30.90
2022-11-27T04:09:46.083Z,27.50
2022-11-27T04:12:13.889Z,23.67
2022-11-27T04:14:42.115Z,20.47
2022-11-27T04:17:10.189Z,27.00
2022-11-27T04:19:38.217Z,27.30
2022-11-27T04:22:06.148Z,24.10
2022-11-27T04:24:35.148Z,23.37
2022-11-27T04:27:03.071Z,23.00
2022-11-27T04:29:31.249Z,21.53
2022-11-27T04:31:59.239Z,18.53
2022-11-27T04:34:26.968Z,24.40
2022-11-27T04:36:54.986Z,21.97
2022-11-27T04:39:22.620Z,22.83
2022-11-27T04:41:51.665Z,33.50
2022-11-27T04:44:19.433Z,22.77
2022-11-27T04:46:47.321Z,29.50
2022-11-27T04:49:14.941Z,19.53
2022-11-27T04:51:42.950Z,19.97
2022-11-27T04:54:10.521Z,48.00
2022-11-27T04:56:38.343Z,23.83
2022-11-27T04:59:08.249Z,19.27
2022-11-27T05:01:35.928Z,19.10
2022-11-27T05:04:03.855Z,24.10
2022-11-27T05:06:31.716Z,23.10
2022-11-27T05:09:02.023Z,28.07
2022-11-27T05:11:30.591Z,21.43
2022-11-27T05:14:12.553Z,20.00
2022-11-27T05:16:41.646Z,24.47
2022-11-27T05:19:09.895Z,21.27
2022-11-27T05:21:38.048Z,20.13
2022-11-27T05:24:06.053Z,33.70
2022-11-27T05:26:34.192Z,23.33
2022-11-27T05:29:02.607Z,31.40
2022-11-27T05:31:30.324Z,22.43
2022-11-27T05:33:59.763Z,26.60
2022-11-27T05:36:28.047Z,23.53
2022-11-27T05:38:55.785Z,24.63
2022-11-27T05:41:24.037Z,34.87
2022-11-27T05:43:51.828Z,31.10
2022-11-27T05:46:21.495Z,28.13
2022-11-27T05:48:49.378Z,23.27
2022-11-27T05:51:19.182Z,25.00
2022-11-27T05:53:47.022Z,28.77
2022-11-27T05:56:15.500Z,50.77
2022-11-27T05:58:44.689Z,27.30
2022-11-27T06:01:13.105Z,24.50
2022-11-27T06:03:41.114Z,23.93
2022-11-27T06:06:09.776Z,27.03
2022-11-27T06:08:39.038Z,29.73
2022-11-27T06:11:07.580Z,27.87
2022-11-27T06:16:26.605Z,20.80
2022-11-27T06:18:55.197Z,24.93
2022-11-27T06:21:23.450Z,22.83
2022-11-27T06:23:53.840Z,23.33
2022-11-27T06:26:22.679Z,26.67
2022-11-27T06:28:50.676Z,22.87
2022-11-27T06:31:20.678Z,26.17
2022-11-27T06:33:48.942Z,23.40
2022-11-27T06:36:16.682Z,21.57
2022-11-27T06:38:44.490Z,22.73
2022-11-27T06:41:14.813Z,23.60
2022-11-27T06:43:42.690Z,29.30
2022-11-27T06:46:12.364Z,21.70
2022-11-27T06:48:40.374Z,22.40
2022-11-27T06:51:08.831Z,21.93
2022-11-27T06:53:38.990Z,22.53
2022-11-27T06:56:08.787Z,23.73
2022-11-27T06:58:38.073Z,22.90
2022-11-27T07:01:07.496Z,22.43
2022-11-27T07:03:35.482Z,22.50
2022-11-27T07:06:05.407Z,26.87
2022-11-27T07:08:33.204Z,25.17
2022-11-27T07:11:02.964Z,23.80
2022-11-27T07:13:30.645Z,25.57
2022-11-27T07:16:02.605Z,27.90
2022-11-27T07:18:35.806Z,21.30
2022-11-27T07:21:03.520Z,22.40
2022-11-27T07:23:31.230Z,22.53
2022-11-27T07:25:59.401Z,21.70
2022-11-27T07:28:27.650Z,21.27
2022-11-27T07:30:55.826Z,23.40
2022-11-27T07:33:24.888Z,22.40
2022-11-27T07:35:58.682Z,22.70
2022-11-27T07:38:26.723Z,21.53
2022-11-27T07:40:54.536Z,22.07
2022-11-27T07:43:22.438Z,21.20
2022-11-27T07:45:50.064Z,21.80
2022-11-27T07:48:17.892Z,27.63
2022-11-27T07:50:47.086Z,19.80
2022-11-27T07:53:14.829Z,21.50
2022-11-27T07:55:42.686Z,21.60
2022-11-27T07:58:10.852Z,22.30
2022-11-27T08:00:38.548Z,20.73
2022-11-27T08:03:06.399Z,20.40
2022-11-27T08:05:35.089Z,20.33
2022-11-27T08:08:04.795Z,21.57
2022-11-27T08:10:32.860Z,20.67
2022-11-27T08:13:00.660Z,19.13
2022-11-27T08:15:28.310Z,22.20
2022-11-27T08:17:56.381Z,26.00
2022-11-27T08:20:24.126Z,20.80
2022-11-27T08:22:52.140Z,20.93
2022-11-27T08:25:21.623Z,20.60
2022-11-27T08:27:49.247Z,20.60
2022-11-27T08:30:16.908Z,20.53
2022-11-27T08:32:45.630Z,21.47
2022-11-27T08:35:13.203Z,21.33
2022-11-27T08:37:41.074Z,20.00
2022-11-27T08:40:09.815Z,19.93
2022-11-27T08:42:38.880Z,19.80
2022-11-27T08:45:06.936Z,21.30
2022-11-27T08:47:34.888Z,20.80
2022-11-27T08:50:02.686Z,22.10
2022-11-27T08:52:31.061Z,20.40
2022-11-27T08:54:59.099Z,19.40
2022-11-27T08:57:27.218Z,18.70
2022-11-27T08:59:56.482Z,19.50
2022-11-27T09:02:24.162Z,18.80
2022-11-27T09:04:51.829Z,17.83
2022-11-27T09:07:19.646Z,17.90
2022-11-27T09:09:47.388Z,17.17
2022-11-27T09:12:15.217Z,18.80
2022-11-27T09:14:43.113Z,17.50
2022-11-27T09:17:12.268Z,17.80
2022-11-27T09:19:39.976Z,15.90
2022-11-27T09:22:08.035Z,16.70
2022-11-27T09:24:36.906Z,17.37
2022-11-27T09:27:05.030Z,16.93
2022-11-27T09:29:34.570Z,16.83
2022-11-27T09:32:02.549Z,15.50
2022-11-27T09:34:37.144Z,16.63
2022-11-27T09:37:05.831Z,15.43
2022-11-27T09:39:34.091Z,15.53
2022-11-27T09:42:03.850Z,17.13
2022-11-27T09:44:34.549Z,17.80
2022-11-27T09:47:05.920Z,17.70
2022-11-27T09:49:36.933Z,15.90
2022-11-27T09:52:06.176Z,16.00
2022-11-27T09:54:37.264Z,14.93
2022-11-27T09:57:05.526Z,15.03
2022-11-27T09:59:37.313Z,15.33
2022-11-27T10:02:05.103Z,15.00
2022-11-27T10:04:58.121Z,15.13
2022-11-27T10:07:28.788Z,15.03
2022-11-27T10:10:02.795Z,15.20
2022-11-27T10:12:35.501Z,15.90
2022-11-27T10:15:05.776Z,15.27
2022-11-27T10:17:36.860Z,15.93
2022-11-27T10:20:09.351Z,14.10
2022-11-27T10:22:44.377Z,14.90
2022-11-27T10:25:14.084Z,14.07
2022-11-27T10:27:44.777Z,13.70
2022-11-27T10:30:15.574Z,14.20
2022-11-27T10:32:59.463Z,14.10
2022-11-27T10:35:28.401Z,14.67
2022-11-27T10:38:05.061Z,13.73
2022-11-27T10:40:37.578Z,13.83
2022-11-27T10:43:08.701Z,13.40
2022-11-27T10:45:40.134Z,13.47
2022-11-27T10:48:07.988Z,13.80
2022-11-27T10:50:36.606Z,14.10
2022-11-27T10:53:07.207Z,13.30
2022-11-27T10:55:42.808Z,12.13
2022-11-27T10:58:16.582Z,12.90
2022-11-27T11:00:44.243Z,13.40
2022-11-27T11:03:17.266Z,13.03
2022-11-27T11:06:19.507Z,14.00
2022-11-27T11:08:44.607Z,12.50
2022-11-27T11:11:12.474Z,12.83
2022-11-27T11:13:46.096Z,13.30
2022-11-27T11:16:23.939Z,14.43
2022-11-27T11:18:52.938Z,12.67
2022-11-27T11:21:24.419Z,17.20
2022-11-27T11:23:57.967Z,13.00
2022-11-27T11:26:27.049Z,26.57
2022-11-27T11:28:55.848Z,15.37
2022-11-27T11:31:29.192Z,12.87
2022-11-27T11:33:58.111Z,12.03
2022-11-27T11:36:25.763Z,13.37
2022-11-27T11:38:55.413Z,11.57
2022-11-27T11:41:24.169Z,12.70
2022-11-27T11:43:56.595Z,11.80
2022-11-27T11:46:25.318Z,13.40
2022-11-27T11:48:57.835Z,11.80
2022-11-27T11:51:29.880Z,11.43
2022-11-27T11:54:04.547Z,11.23
2022-11-27T11:56:34.587Z,11.53
2022-11-27T11:59:03.695Z,12.10
2022-11-27T12:01:45.088Z,11.57
2022-11-27T12:04:19.750Z,11.63
2022-11-27T12:06:53.034Z,11.90
2022-11-27T12:09:36.440Z,12.20
2022-11-27T12:12:07.734Z,11.80
2022-11-27T12:14:42.398Z,12.00
2022-11-27T12:17:17.106Z,11.47
2022-11-27T12:19:55.395Z,11.30
2022-11-27T12:22:31.875Z,12.00
2022-11-27T12:25:06.464Z,11.77
2022-11-27T12:27:39.301Z,13.03
2022-11-27T12:30:11.316Z,13.50
2022-11-27T12:32:49.544Z,12.73
2022-11-27T12:35:22.481Z,12.03
2022-11-27T12:37:53.728Z,12.87
2022-11-27T12:40:27.562Z,12.33
2022-11-27T12:42:59.780Z,11.80
2022-11-27T12:45:30.078Z,11.30
2022-11-27T12:48:02.486Z,12.17
2022-11-27T12:50:34.088Z,11.37
2022-11-27T12:53:08.680Z,11.77
2022-11-27T12:55:38.714Z,10.43
2022-11-27T12:58:08.167Z,11.20
2022-11-27T13:00:37.847Z,11.10
2022-11-27T13:03:08.150Z,11.57
2022-11-27T13:05:39.621Z,11.87
2022-11-27T13:08:12.022Z,13.63
2022-11-27T13:10:43.247Z,12.70
2022-11-27T13:13:15.801Z,15.63
2022-11-27T13:15:45.242Z,10.90
2022-11-27T13:18:17.574Z,10.23
2022-11-27T13:20:50.817Z,11.37
2022-11-27T13:23:20.323Z,12.17
2022-11-27T13:25:51.413Z,11.63
2022-11-27T13:28:24.743Z,10.20
2022-11-27T13:30:52.995Z,11.83
2022-11-27T13:33:30.997Z,11.10
2022-11-27T13:35:58.711Z,10.50
2022-11-27T13:38:27.326Z,13.77
2022-11-27T13:40:57.482Z,10.90
2022-11-27T13:43:28.763Z,11.80
2022-11-27T13:46:05.242Z,12.40
2022-11-27T13:48:34.434Z,10.80
2022-11-27T13:51:02.974Z,10.77
2022-11-27T13:53:32.440Z,11.50
2022-11-27T13:56:01.437Z,10.63
2022-11-27T13:58:30.422Z,10.67
2022-11-27T14:00:58.193Z,11.20
2022-11-27T14:03:26.879Z,11.50
2022-11-27T14:05:54.582Z,12.00
2022-11-27T14:08:24.593Z,11.50
2022-11-27T14:10:54.284Z,10.20
2022-11-27T14:13:27.622Z,11.77
2022-11-27T14:16:02.541Z,12.70
2022-11-27T14:18:32.364Z,13.63
2022-11-27T14:21:02.399Z,13.87
2022-11-27T14:23:31.244Z,11.20
2022-11-27T14:26:03.154Z,11.93
2022-11-27T14:28:33.323Z,11.40
2022-11-27T14:31:04.868Z,11.80
2022-11-27T14:33:47.524Z,12.07
2022-11-27T14:36:23.523Z,12.83
2022-11-27T14:38:51.356Z,11.20
2022-11-27T14:41:19.985Z,11.23
2022-11-27T14:43:49.213Z,12.20
2022-11-27T14:46:18.205Z,11.67
2022-11-27T14:48:46.730Z,11.80
2022-11-27T14:51:17.042Z,11.70
2022-11-27T14:53:45.561Z,12.33
2022-11-27T14:56:13.707Z,12.10
2022-11-27T14:58:47.250Z,12.70
2022-11-27T15:01:22.572Z,13.60
2022-11-27T15:03:57.444Z,13.20
2022-11-27T15:06:25.900Z,12.00
2022-11-27T15:09:15.818Z,12.10
2022-11-27T15:11:55.754Z,11.37
2022-11-27T15:14:24.768Z,10.77
2022-11-27T15:16:54.925Z,9.13
2022-11-27T15:19:26.629Z,10.30
2022-11-27T15:21:54.696Z,9.90
2022-11-27T15:24:30.323Z,10.50
2022-11-27T15:27:08.328Z,10.53
2022-11-27T15:29:37.796Z,10.43
2022-11-27T15:32:23.002Z,9.97
2022-11-27T15:34:52.957Z,10.07
2022-11-27T15:37:23.122Z,10.40
2022-11-27T15:39:52.378Z,9.20
2022-11-27T15:42:23.147Z,10.60
2022-11-27T15:44:54.048Z,10.60
2022-11-27T15:47:24.695Z,10.80
2022-11-27T15:49:52.553Z,11.30
2022-11-27T15:52:20.437Z,11.40
2022-11-27T15:54:48.831Z,10.10
2022-11-27T15:57:16.383Z,10.67
2022-11-27T15:59:44.953Z,11.13
2022-11-27T16:02:17.723Z,10.40
2022-11-27T16:04:47.163Z,11.27
2022-11-27T16:07:15.675Z,11.00
2022-11-27T16:09:43.443Z,11.33
2022-11-27T16:12:11.078Z,12.87
2022-11-27T16:14:39.249Z,12.10
2022-11-27T16:17:07.258Z,11.37
2022-11-27T16:19:35.094Z,12.10
2022-11-27T16:22:04.099Z,11.70
2022-11-27T16:24:33.380Z,10.87
2022-11-27T16:27:01.029Z,11.20
2022-11-27T16:29:29.098Z,11.67
2022-11-27T16:31:56.977Z,10.73
2022-11-27T16:34:25.062Z,11.03
2022-11-27T16:36:53.589Z,11.50
2022-11-27T16:39:22.844Z,11.97
2022-11-27T16:41:51.160Z,11.77
2022-11-27T16:44:20.263Z,11.50
2022-11-27T16:46:48.118Z,11.70
2022-11-27T16:49:16.032Z,11.97
2022-11-27T16:51:44.952Z,12.07
2022-11-27T16:54:14.022Z,11.40
2022-11-27T16:56:44.642Z,11.90
2022-11-27T16:59:14.701Z,12.50
2022-11-27T17:01:43.304Z,13.07
2022-11-27T17:04:16.012Z,14.67
2022-11-27T17:06:43.982Z,12.30
2022-11-27T17:09:11.694Z,13.13
2022-11-27T17:11:43.293Z,13.50
2022-11-27T17:14:12.551Z,13.50
2022-11-27T17:16:41.328Z,13.50
2022-11-27T17:19:12.017Z,12.73
2022-11-27T17:21:40.084Z,13.53
2022-11-27T17:24:14.741Z,13.97
2022-11-27T17:26:48.852Z,14.73
2022-11-27T17:29:19.308Z,13.53
2022-11-27T17:31:47.193Z,13.20
2022-11-27T17:34:15.564Z,15.70
2022-11-27T17:36:45.818Z,13.57
2022-11-27T17:39:14.923Z,13.80
2022-11-27T17:41:44.695Z,15.13
2022-11-27T17:44:12.346Z,16.53
2022-11-27T17:46:41.622Z,14.30
2022-11-27T17:49:09.817Z,15.37
2022-11-27T17:51:37.802Z,15.97
2022-11-27T17:54:06.283Z,14.80
2022-11-27T17:56:35.384Z,14.63
2022-11-27T17:59:04.108Z,15.30
2022-11-27T18:01:34.435Z,16.00
2022-11-27T18:06:55.790Z,13.70
2022-11-27T18:09:24.434Z,14.30
2022-11-27T18:11:55.422Z,15.07
2022-11-27T18:14:23.245Z,14.53
2022-11-27T18:16:52.120Z,14.00
2022-11-27T18:19:22.243Z,14.57
2022-11-27T18:21:49.857Z,13.30
2022-11-27T18:24:25.426Z,13.77
2022-11-27T18:27:09.537Z,14.10
2022-11-27T18:29:37.985Z,13.60
2022-11-27T18:32:07.311Z,13.70
2022-11-27T18:34:36.546Z,15.07
2022-11-27T18:37:04.709Z,14.27
2022-11-27T18:39:32.464Z,16.80
2022-11-27T18:42:00.121Z,13.70
2022-11-27T18:44:28.391Z,13.23
2022-11-27T18:46:56.349Z,16.13
2022-11-27T18:49:24.394Z,14.43
2022-11-27T18:51:54.165Z,15.43
2022-11-27T18:54:22.578Z,14.53
2022-11-27T18:56:51.196Z,15.30
2022-11-27T18:59:19.562Z,21.23
2022-11-27T19:01:47.192Z,16.23
2022-11-27T19:04:16.016Z,16.67
2022-11-27T19:06:44.415Z,17.07
2022-11-27T19:09:14.472Z,15.77
2022-11-27T19:11:45.189Z,15.63
2022-11-27T19:14:13.698Z,15.20
2022-11-27T19:16:45.921Z,13.63
2022-11-27T19:20:04.462Z,14.50
2022-11-27T19:22:03.211Z,12.20
2022-11-27T19:24:32.391Z,13.80
2022-11-27T19:27:00.987Z,14.07
2022-11-27T19:29:29.230Z,12.90
2022-11-27T19:31:58.763Z,13.47
2022-11-27T19:34:26.982Z,14.20
2022-11-27T19:36:54.694Z,14.37
2022-11-27T19:39:22.495Z,14.50
2022-11-27T19:41:51.586Z,12.80
2022-11-27T19:44:19.773Z,13.10
2022-11-27T19:46:48.635Z,13.40
2022-11-27T19:49:17.661Z,13.07
2022-11-27T19:51:46.860Z,12.57
2022-11-27T19:54:15.642Z,13.37
2022-11-27T19:56:43.645Z,13.50
2022-11-27T19:59:14.096Z,13.20
2022-11-27T20:01:42.611Z,12.70
2022-11-27T20:04:11.151Z,13.40
2022-11-27T20:06:39.977Z,13.87
2022-11-27T20:09:08.699Z,15.83
2022-11-27T20:11:36.758Z,13.00
2022-11-27T20:14:05.641Z,13.37
2022-11-27T20:16:36.306Z,14.03
2022-11-27T20:19:05.946Z,13.40
2022-11-27T20:21:36.537Z,12.67
2022-11-27T20:24:04.984Z,12.07
2022-11-27T20:26:37.122Z,12.73
2022-11-27T20:29:08.012Z,12.77
2022-11-27T20:31:38.370Z,13.07
2022-11-27T20:34:07.060Z,13.13
2022-11-27T20:36:36.561Z,12.83
2022-11-27T20:39:04.383Z,11.90
2022-11-27T20:41:32.157Z,13.23
2022-11-27T20:44:01.417Z,13.50
2022-11-27T20:46:31.057Z,13.80
2022-11-27T20:49:00.986Z,14.13
2022-11-27T20:51:33.347Z,13.83
2022-11-27T20:54:07.501Z,14.37
2022-11-27T20:56:37.627Z,14.00
2022-11-27T20:59:08.905Z,14.00
2022-11-27T21:01:37.896Z,14.50
2022-11-27T21:04:09.669Z,13.70
2022-11-27T21:06:43.693Z,13.97
2022-11-27T21:09:14.188Z,14.47
2022-11-27T21:11:42.797Z,13.80
2022-11-27T21:14:12.298Z,13.50
2022-11-27T21:16:42.976Z,14.30
2022-11-27T21:19:15.154Z,13.70
2022-11-27T21:21:43.507Z,13.00
2022-11-27T21:24:11.657Z,13.60
2022-11-27T21:26:41.501Z,14.10
2022-11-27T21:29:09.645Z,13.33
2022-11-27T21:31:38.439Z,13.60
2022-11-27T21:34:08.436Z,14.33
2022-11-27T21:36:38.292Z,13.90
2022-11-27T21:39:07.005Z,13.50
2022-11-27T21:41:35.039Z,13.83
2022-11-27T21:44:05.669Z,14.80
2022-11-27T21:46:34.099Z,14.13
2022-11-27T21:49:05.373Z,13.60
2022-11-27T21:51:32.992Z,12.97
2022-11-27T21:54:07.045Z,13.47
2022-11-27T21:56:37.608Z,14.60
2022-11-27T21:59:05.465Z,13.43
2022-11-27T22:01:33.476Z,13.67
2022-11-27T22:04:02.510Z,13.97
2022-11-27T22:06:31.353Z,14.07
2022-11-27T22:09:00.385Z,13.43
2022-11-27T22:11:30.292Z,13.10
2022-11-27T22:13:58.654Z,13.63
2022-11-27T22:16:27.271Z,13.00
2022-11-27T22:18:55.656Z,13.90
2022-11-27T22:21:23.534Z,13.40
2022-11-27T22:23:51.317Z,14.20
2022-11-27T22:26:21.080Z,12.70
2022-11-27T22:28:50.512Z,12.90
2022-11-27T22:31:21.266Z,13.30
2022-11-27T22:33:49.814Z,14.47
2022-11-27T22:36:18.736Z,13.40
2022-11-27T22:38:47.794Z,13.70
2022-11-27T22:41:16.083Z,14.00
2022-11-27T22:43:44.559Z,13.63
2022-11-27T22:46:14.735Z,14.20
2022-11-27T22:48:43.144Z,13.43
2022-11-27T22:51:10.816Z,13.13
2022-11-27T22:53:38.698Z,13.90
2022-11-27T22:56:07.221Z,13.37
2022-11-27T22:58:39.790Z,13.20
2022-11-27T23:01:09.905Z,13.20
2022-11-27T23:03:40.156Z,13.70
2022-11-27T23:06:12.000Z,13.60
2022-11-27T23:08:39.969Z,13.10
2022-11-27T23:11:08.328Z,13.73
2022-11-27T23:13:36.282Z,14.00
2022-11-27T23:16:04.468Z,13.83
2022-11-27T23:18:32.514Z,12.80
2022-11-27T23:21:01.748Z,13.80
2022-11-27T23:23:29.541Z,13.43
2022-11-27T23:25:57.218Z,14.30
2022-11-27T23:28:25.239Z,12.80
2022-11-27T23:31:15.349Z,13.07
2022-11-27T23:33:41.329Z,13.83
2022-11-27T23:36:12.050Z,13.57
2022-11-27T23:38:41.761Z,12.57
2022-11-27T23:41:09.957Z,13.20
2022-11-27T23:43:37.791Z,12.30
2022-11-27T23:46:06.127Z,12.33
2022-11-27T23:48:33.981Z,14.23
2022-11-27T23:51:01.865Z,13.50
2022-11-27T23:53:31.565Z,13.90
2022-11-27T23:56:01.944Z,12.63
2022-11-27T23:58:29.641Z,13.13
